sensor_id;sensor_type;location;lat;lon;timestamp;pressure;altitude;pressure_sealevel;temperature;humidity
50093;BME280;35974;47.752;10.290;2022-08-02T00:02:19;94211.94;;;15.70;94.34
50093;BME280;35974;47.752;10.290;2022-08-02T00:04:46;94196.97;;;15.83;94.95
50093;BME280;35974;47.752;10.290;2022-08-02T00:07:13;94169.09;;;16.10;92.60
50093;BME280;35974;47.752;10.290;2022-08-02T00:09:41;94171.75;;;15.99;93.02
50093;BME280;35974;47.752;10.290;2022-08-02T00:12:08;94161.81;;;15.70;91.82
50093;BME280;35974;47.752;10.290;2022-08-02T00:14:36;94202.38;;;15.88;91.94
50093;BME280;35974;47.752;10.290;2022-08-02T00:17:04;94204.16;;;15.75;90.37
50093;BME280;35974;47.752;10.290;2022-08-02T00:19:30;94187.63;;;15.68;89.46
50093;BME280;35974;47.752;10.290;2022-08-02T00:21:57;94190.75;;;15.77;88.94
50093;BME280;35974;47.752;10.290;2022-08-02T00:24:23;94185.31;;;15.60;89.45
50093;BME280;35974;47.752;10.290;2022-08-02T00:26:57;94194.72;;;15.56;89.29
50093;BME280;35974;47.752;10.290;2022-08-02T00:29:24;94153.19;;;15.40;88.14
50093;BME280;35974;47.752;10.290;2022-08-02T00:31:50;94168.09;;;15.46;89.06
50093;BME280;35974;47.752;10.290;2022-08-02T00:34:16;94184.88;;;15.63;88.84
50093;BME280;35974;47.752;10.290;2022-08-02T00:36:57;94185.78;;;15.57;89.03
50093;BME280;35974;47.752;10.290;2022-08-02T00:39:23;94148.75;;;15.52;88.61
50093;BME280;35974;47.752;10.290;2022-08-02T00:42:01;94158.25;;;15.53;88.56
50093;BME280;35974;47.752;10.290;2022-08-02T00:44:28;94172.03;;;15.55;89.20
50093;BME280;35974;47.752;10.290;2022-08-02T00:46:54;94172.47;;;15.52;89.76
50093;BME280;35974;47.752;10.290;2022-08-02T00:49:21;94131.84;;;15.29;89.22
50093;BME280;35974;47.752;10.290;2022-08-02T00:51:47;94164.34;;;15.65;87.67
50093;BME280;35974;47.752;10.290;2022-08-02T00:54:14;94147.25;;;15.56;88.06
50093;BME280;35974;47.752;10.290;2022-08-02T00:56:40;94151.38;;;15.52;87.38
50093;BME280;35974;47.752;10.290;2022-08-02T00:59:17;94148.97;;;15.62;86.80
50093;BME280;35974;47.752;10.290;2022-08-02T01:01:43;94170.63;;;15.64;86.66
50093;BME280;35974;47.752;10.290;2022-08-02T01:04:24;94171.09;;;15.61;87.55
50093;BME280;35974;47.752;10.290;2022-08-02T01:06:56;94137.00;;;15.36;87.03
50093;BME280;35974;47.752;10.290;2022-08-02T01:09:22;94159.41;;;15.57;86.34
50093;BME280;35974;47.752;10.290;2022-08-02T01:11:49;94160.41;;;15.44;86.89
50093;BME280;35974;47.752;10.290;2022-08-02T01:14:15;94132.97;;;15.33;85.94
50093;BME280;35974;47.752;10.290;2022-08-02T01:16:51;94152.97;;;15.53;84.92
50093;BME280;35974;47.752;10.290;2022-08-02T01:19:53;94163.78;;;15.63;85.16
50093;BME280;35974;47.752;10.290;2022-08-02T01:22:41;94163.97;;;15.50;85.18
50093;BME280;35974;47.752;10.290;2022-08-02T01:33:58;94177.97;;;15.38;86.19
50093;BME280;35974;47.752;10.290;2022-08-02T01:36:30;94156.13;;;15.19;86.46
50093;BME280;35974;47.752;10.290;2022-08-02T01:38:58;94181.72;;;15.43;86.39
50093;BME280;35974;47.752;10.290;2022-08-02T01:41:27;94161.97;;;15.22;86.96
50093;BME280;35974;47.752;10.290;2022-08-02T01:43:57;94165.16;;;15.12;86.76
50093;BME280;35974;47.752;10.290;2022-08-02T01:46:26;94175.13;;;15.10;86.97
50093;BME280;35974;47.752;10.290;2022-08-02T01:48:56;94172.06;;;14.94;88.23
50093;BME280;35974;47.752;10.290;2022-08-02T01:51:24;94143.84;;;14.83;87.58
50093;BME280;35974;47.752;10.290;2022-08-02T01:54:14;94129.09;;;14.63;88.79
50093;BME280;35974;47.752;10.290;2022-08-02T01:56:43;94168.53;;;15.00;86.69
50093;BME280;35974;47.752;10.290;2022-08-02T01:59:13;94158.75;;;14.89;87.33
50093;BME280;35974;47.752;10.290;2022-08-02T02:01:42;94158.19;;;14.69;88.25
50093;BME280;35974;47.752;10.290;2022-08-02T02:04:09;94148.72;;;14.68;88.04
50093;BME280;35974;47.752;10.290;2022-08-02T02:06:37;94140.22;;;14.47;87.85
50093;BME280;35974;47.752;10.290;2022-08-02T02:09:05;94132.19;;;14.42;87.63
50093;BME280;35974;47.752;10.290;2022-08-02T02:11:33;94143.22;;;14.69;86.53
50093;BME280;35974;47.752;10.290;2022-08-02T02:14:20;94167.16;;;14.68;87.12
50093;BME280;35974;47.752;10.290;2022-08-02T02:16:48;94153.94;;;14.49;89.26
50093;BME280;35974;47.752;10.290;2022-08-02T02:19:19;94141.69;;;14.43;88.98
50093;BME280;35974;47.752;10.290;2022-08-02T02:21:47;94166.72;;;14.71;88.80
50093;BME280;35974;47.752;10.290;2022-08-02T02:24:14;94153.94;;;14.49;88.80
50093;BME280;35974;47.752;10.290;2022-08-02T02:26:42;94154.28;;;14.59;89.08
50093;BME280;35974;47.752;10.290;2022-08-02T02:29:19;94166.97;;;14.81;87.41
50093;BME280;35974;47.752;10.290;2022-08-02T02:31:48;94167.72;;;14.51;88.45
50093;BME280;35974;47.752;10.290;2022-08-02T02:34:27;94149.72;;;14.29;88.94
50093;BME280;35974;47.752;10.290;2022-08-02T02:36:55;94129.25;;;14.13;89.60
50093;BME280;35974;47.752;10.290;2022-08-02T02:39:23;94151.06;;;14.20;89.58
50093;BME280;35974;47.752;10.290;2022-08-02T02:41:52;94156.59;;;14.31;89.05
50093;BME280;35974;47.752;10.290;2022-08-02T02:44:19;94161.81;;;14.19;89.25
50093;BME280;35974;47.752;10.290;2022-08-02T02:46:50;94137.75;;;14.15;89.04
50093;BME280;35974;47.752;10.290;2022-08-02T02:49:20;94172.84;;;14.27;88.75
50093;BME280;35974;47.752;10.290;2022-08-02T02:51:49;94153.66;;;14.02;89.30
50093;BME280;35974;47.752;10.290;2022-08-02T02:54:16;94142.69;;;13.86;89.92
50093;BME280;35974;47.752;10.290;2022-08-02T02:57:00;94163.47;;;13.95;89.35
50093;BME280;35974;47.752;10.290;2022-08-02T02:59:28;94094.72;;;13.47;89.05
50093;BME280;35974;47.752;10.290;2022-08-02T03:01:55;94126.16;;;13.79;88.18
50093;BME280;35974;47.752;10.290;2022-08-02T03:04:34;94152.63;;;13.84;87.67
50093;BME280;35974;47.752;10.290;2022-08-02T03:07:22;94141.91;;;13.61;89.21
50093;BME280;35974;47.752;10.290;2022-08-02T03:09:49;94137.22;;;13.63;89.60
50093;BME280;35974;47.752;10.290;2022-08-02T03:12:19;94144.13;;;13.64;89.08
50093;BME280;35974;47.752;10.290;2022-08-02T03:14:45;94156.66;;;13.87;88.65
50093;BME280;35974;47.752;10.290;2022-08-02T03:17:14;94132.81;;;13.63;89.16
50093;BME280;35974;47.752;10.290;2022-08-02T03:19:41;94127.00;;;13.54;88.88
50093;BME280;35974;47.752;10.290;2022-08-02T03:22:08;94119.06;;;13.36;90.28
50093;BME280;35974;47.752;10.290;2022-08-02T03:24:35;94144.75;;;13.59;89.51
50093;BME280;35974;47.752;10.290;2022-08-02T03:27:02;94154.47;;;13.59;89.54
50093;BME280;35974;47.752;10.290;2022-08-02T03:29:28;94138.47;;;13.35;90.43
50093;BME280;35974;47.752;10.290;2022-08-02T03:32:00;94158.59;;;13.48;90.98
50093;BME280;35974;47.752;10.290;2022-08-02T03:34:26;94149.94;;;13.66;89.46
50093;BME280;35974;47.752;10.290;2022-08-02T03:36:54;94167.41;;;13.60;89.67
50093;BME280;35974;47.752;10.290;2022-08-02T03:39:22;94145.50;;;13.41;89.82
50093;BME280;35974;47.752;10.290;2022-08-02T03:41:50;94146.88;;;13.50;88.59
50093;BME280;35974;47.752;10.290;2022-08-02T03:44:18;94161.38;;;13.53;89.01
50093;BME280;35974;47.752;10.290;2022-08-02T03:46:44;94179.16;;;13.58;88.49
50093;BME280;35974;47.752;10.290;2022-08-02T03:49:13;94178.06;;;13.40;88.85
50093;BME280;35974;47.752;10.290;2022-08-02T03:51:42;94144.53;;;13.04;90.08
50093;BME280;35974;47.752;10.290;2022-08-02T03:54:10;94187.47;;;13.23;89.95
50093;BME280;35974;47.752;10.290;2022-08-02T03:56:38;94150.59;;;13.04;90.36
50093;BME280;35974;47.752;10.290;2022-08-02T03:59:06;94151.16;;;13.06;90.07
50093;BME280;35974;47.752;10.290;2022-08-02T04:01:33;94145.53;;;13.03;90.43
50093;BME280;35974;47.752;10.290;2022-08-02T04:04:03;94161.66;;;13.13;90.03
50093;BME280;35974;47.752;10.290;2022-08-02T04:06:29;94173.72;;;13.21;90.21
50093;BME280;35974;47.752;10.290;2022-08-02T04:08:56;94148.34;;;13.08;90.57
50093;BME280;35974;47.752;10.290;2022-08-02T04:11:23;94139.81;;;13.12;89.08
50093;BME280;35974;47.752;10.290;2022-08-02T04:14:00;94169.44;;;13.26;89.17
50093;BME280;35974;47.752;10.290;2022-08-02T04:19:18;94163.19;;;13.21;89.50
50093;BME280;35974;47.752;10.290;2022-08-02T04:21:48;94159.72;;;13.02;90.57
50093;BME280;35974;47.752;10.290;2022-08-02T04:24:25;94128.47;;;12.87;90.02
50093;BME280;35974;47.752;10.290;2022-08-02T04:26:55;94151.09;;;13.19;88.59
50093;BME280;35974;47.752;10.290;2022-08-02T04:29:32;94173.00;;;13.07;89.13
50093;BME280;35974;47.752;10.290;2022-08-02T04:31:59;94181.09;;;13.05;90.13
50093;BME280;35974;47.752;10.290;2022-08-02T04:34:26;94155.66;;;12.99;89.78
50093;BME280;35974;47.752;10.290;2022-08-02T04:36:53;94159.66;;;13.08;89.88
50093;BME280;35974;47.752;10.290;2022-08-02T04:39:20;94154.03;;;12.98;91.04
50093;BME280;35974;47.752;10.290;2022-08-02T04:41:46;94153.22;;;13.04;90.91
50093;BME280;35974;47.752;10.290;2022-08-02T04:44:13;94176.09;;;13.35;90.30
50093;BME280;35974;47.752;10.290;2022-08-02T04:46:40;94190.63;;;13.38;90.91
50093;BME280;35974;47.752;10.290;2022-08-02T04:49:08;94142.59;;;13.17;90.58
50093;BME280;35974;47.752;10.290;2022-08-02T04:51:39;94194.50;;;13.61;89.96
50093;BME280;35974;47.752;10.290;2022-08-02T04:54:08;94157.22;;;13.45;90.93
50093;BME280;35974;47.752;10.290;2022-08-02T04:56:37;94187.97;;;13.70;90.92
50093;BME280;35974;47.752;10.290;2022-08-02T04:59:04;94161.31;;;13.60;91.59
50093;BME280;35974;47.752;10.290;2022-08-02T05:01:31;94171.31;;;13.76;91.86
50093;BME280;35974;47.752;10.290;2022-08-02T05:03:58;94176.88;;;13.86;91.28
50093;BME280;35974;47.752;10.290;2022-08-02T05:06:24;94149.81;;;13.79;91.28
50093;BME280;35974;47.752;10.290;2022-08-02T05:08:51;94147.38;;;13.84;91.32
50093;BME280;35974;47.752;10.290;2022-08-02T05:11:22;94155.00;;;13.93;91.57
50093;BME280;35974;47.752;10.290;2022-08-02T05:14:01;94152.50;;;13.98;92.43
50093;BME280;35974;47.752;10.290;2022-08-02T05:16:28;94162.75;;;14.24;91.37
50093;BME280;35974;47.752;10.290;2022-08-02T05:18:58;94167.34;;;14.29;90.70
50093;BME280;35974;47.752;10.290;2022-08-02T05:21:25;94153.41;;;14.28;90.81
50093;BME280;35974;47.752;10.290;2022-08-02T05:23:51;94165.69;;;14.35;91.44
50093;BME280;35974;47.752;10.290;2022-08-02T05:26:18;94166.25;;;14.37;91.56
50093;BME280;35974;47.752;10.290;2022-08-02T05:28:44;94187.47;;;14.60;91.27
50093;BME280;35974;47.752;10.290;2022-08-02T05:31:11;94176.19;;;14.53;91.54
50093;BME280;35974;47.752;10.290;2022-08-02T05:33:39;94185.72;;;14.73;91.38
50093;BME280;35974;47.752;10.290;2022-08-02T05:36:05;94150.59;;;14.60;91.13
50093;BME280;35974;47.752;10.290;2022-08-02T05:38:34;94192.88;;;14.84;90.76
50093;BME280;35974;47.752;10.290;2022-08-02T05:41:02;94177.78;;;14.91;90.92
50093;BME280;35974;47.752;10.290;2022-08-02T05:43:29;94187.44;;;14.97;90.98
50093;BME280;35974;47.752;10.290;2022-08-02T05:45:55;94165.66;;;14.90;90.88
50093;BME280;35974;47.752;10.290;2022-08-02T05:48:22;94150.03;;;14.77;91.35
50093;BME280;35974;47.752;10.290;2022-08-02T05:51:00;94181.22;;;15.22;89.85
50093;BME280;35974;47.752;10.290;2022-08-02T05:53:40;94204.03;;;15.28;90.42
50093;BME280;35974;47.752;10.290;2022-08-02T05:56:49;94201.53;;;15.33;89.99
50093;BME280;35974;47.752;10.290;2022-08-02T05:59:25;94192.69;;;15.58;89.68
50093;BME280;35974;47.752;10.290;2022-08-02T06:02:01;94151.78;;;15.25;89.59
50093;BME280;35974;47.752;10.290;2022-08-02T06:04:53;94203.56;;;15.62;89.89
50093;BME280;35974;47.752;10.290;2022-08-02T06:07:23;94205.31;;;15.68;90.44
50093;BME280;35974;47.752;10.290;2022-08-02T06:09:50;94210.69;;;15.73;90.58
50093;BME280;35974;47.752;10.290;2022-08-02T06:12:17;94170.47;;;15.78;89.34
50093;BME280;35974;47.752;10.290;2022-08-02T06:14:45;94178.28;;;15.96;88.49
50093;BME280;35974;47.752;10.290;2022-08-02T06:17:17;94173.22;;;15.83;89.15
50093;BME280;35974;47.752;10.290;2022-08-02T06:19:45;94187.22;;;15.95;88.88
50093;BME280;35974;47.752;10.290;2022-08-02T06:22:18;94188.03;;;16.07;89.37
50093;BME280;35974;47.752;10.290;2022-08-02T06:25:03;94171.50;;;16.24;87.91
50093;BME280;35974;47.752;10.290;2022-08-02T06:27:30;94198.09;;;16.34;87.72
50093;BME280;35974;47.752;10.290;2022-08-02T06:29:58;94169.31;;;16.21;87.92
50093;BME280;35974;47.752;10.290;2022-08-02T06:32:26;94192.25;;;16.32;87.86
50093;BME280;35974;47.752;10.290;2022-08-02T06:34:52;94209.13;;;16.55;87.15
50093;BME280;35974;47.752;10.290;2022-08-02T06:37:35;94195.81;;;16.50;86.76
50093;BME280;35974;47.752;10.290;2022-08-02T06:40:13;94189.47;;;16.51;86.89
50093;BME280;35974;47.752;10.290;2022-08-02T06:42:48;94191.66;;;16.54;87.49
50093;BME280;35974;47.752;10.290;2022-08-02T06:45:17;94177.88;;;16.52;87.69
50093;BME280;35974;47.752;10.290;2022-08-02T06:47:43;94183.94;;;16.64;87.84
50093;BME280;35974;47.752;10.290;2022-08-02T06:50:10;94201.56;;;16.99;86.43
50093;BME280;35974;47.752;10.290;2022-08-02T06:52:37;94189.19;;;16.88;86.46
50093;BME280;35974;47.752;10.290;2022-08-02T06:55:04;94207.72;;;17.16;85.92
50093;BME280;35974;47.752;10.290;2022-08-02T06:57:32;94185.69;;;16.99;85.91
50093;BME280;35974;47.752;10.290;2022-08-02T06:59:59;94179.94;;;17.02;86.60
50093;BME280;35974;47.752;10.290;2022-08-02T07:02:28;94204.84;;;17.35;84.96
50093;BME280;35974;47.752;10.290;2022-08-02T07:04:55;94179.66;;;17.15;84.34
50093;BME280;35974;47.752;10.290;2022-08-02T07:07:22;94195.97;;;17.41;84.59
50093;BME280;35974;47.752;10.290;2022-08-02T07:09:49;94185.00;;;17.49;84.55
50093;BME280;35974;47.752;10.290;2022-08-02T07:12:29;94181.00;;;17.64;81.70
50093;BME280;35974;47.752;10.290;2022-08-02T07:14:57;94172.19;;;17.75;80.92
50093;BME280;35974;47.752;10.290;2022-08-02T07:17:24;94157.75;;;17.66;80.62
50093;BME280;35974;47.752;10.290;2022-08-02T07:19:51;94169.63;;;17.80;80.30
50093;BME280;35974;47.752;10.290;2022-08-02T07:22:17;94189.41;;;17.89;80.81
50093;BME280;35974;47.752;10.290;2022-08-02T07:24:45;94184.91;;;18.07;80.65
50093;BME280;35974;47.752;10.290;2022-08-02T07:27:11;94185.19;;;17.93;80.98
50093;BME280;35974;47.752;10.290;2022-08-02T07:29:40;94198.38;;;18.05;81.33
50093;BME280;35974;47.752;10.290;2022-08-02T07:32:22;94205.19;;;18.18;77.88
50093;BME280;35974;47.752;10.290;2022-08-02T07:34:49;94203.66;;;18.05;78.64
50093;BME280;35974;47.752;10.290;2022-08-02T07:37:23;94191.84;;;18.13;77.38
50093;BME280;35974;47.752;10.290;2022-08-02T07:40:11;94209.38;;;18.53;75.27
50093;BME280;35974;47.752;10.290;2022-08-02T07:42:44;94192.91;;;18.51;75.32
50093;BME280;35974;47.752;10.290;2022-08-02T07:45:13;94213.81;;;18.70;74.74
50093;BME280;35974;47.752;10.290;2022-08-02T07:47:40;94182.50;;;18.66;74.04
50093;BME280;35974;47.752;10.290;2022-08-02T07:50:08;94196.88;;;18.71;74.59
50093;BME280;35974;47.752;10.290;2022-08-02T07:52:35;94186.22;;;18.65;75.23
50093;BME280;35974;47.752;10.290;2022-08-02T07:55:02;94172.25;;;18.53;74.97
50093;BME280;35974;47.752;10.290;2022-08-02T07:57:29;94193.09;;;18.66;73.79
50093;BME280;35974;47.752;10.290;2022-08-02T07:59:56;94189.53;;;18.78;73.08
50093;BME280;35974;47.752;10.290;2022-08-02T08:02:22;94194.63;;;19.01;72.85
50093;BME280;35974;47.752;10.290;2022-08-02T08:04:52;94202.22;;;19.20;69.93
50093;BME280;35974;47.752;10.290;2022-08-02T08:07:19;94201.72;;;19.23;70.51
50093;BME280;35974;47.752;10.290;2022-08-02T08:09:46;94206.63;;;19.36;71.47
50093;BME280;35974;47.752;10.290;2022-08-02T08:12:21;94179.50;;;19.29;70.04
50093;BME280;35974;47.752;10.290;2022-08-02T08:14:48;94178.09;;;19.49;67.80
50093;BME280;35974;47.752;10.290;2022-08-02T08:17:14;94194.44;;;19.35;68.24
50093;BME280;35974;47.752;10.290;2022-08-02T08:19:41;94171.81;;;19.28;69.78
50093;BME280;35974;47.752;10.290;2022-08-02T08:22:20;94193.78;;;19.50;69.90
50093;BME280;35974;47.752;10.290;2022-08-02T08:24:47;94176.59;;;19.58;70.38
50093;BME280;35974;47.752;10.290;2022-08-02T08:27:15;94196.44;;;19.78;71.10
50093;BME280;35974;47.752;10.290;2022-08-02T08:29:43;94199.69;;;19.85;71.83
50093;BME280;35974;47.752;10.290;2022-08-02T08:32:10;94169.91;;;19.78;70.04
50093;BME280;35974;47.752;10.290;2022-08-02T08:34:47;94179.56;;;19.94;69.07
50093;BME280;35974;47.752;10.290;2022-08-02T08:37:14;94193.16;;;20.40;69.17
50093;BME280;35974;47.752;10.290;2022-08-02T08:39:43;94165.97;;;20.23;68.92
50093;BME280;35974;47.752;10.290;2022-08-02T08:42:29;94202.06;;;20.19;68.82
50093;BME280;35974;47.752;10.290;2022-08-02T08:44:57;94196.38;;;20.42;67.75
50093;BME280;35974;47.752;10.290;2022-08-02T08:47:35;94189.44;;;20.41;68.81
50093;BME280;35974;47.752;10.290;2022-08-02T08:52:35;94154.06;;;20.36;68.82
50093;BME280;35974;47.752;10.290;2022-08-02T08:55:08;94173.56;;;20.57;68.79
50093;BME280;35974;47.752;10.290;2022-08-02T08:57:39;94176.84;;;20.69;67.85
50093;BME280;35974;47.752;10.290;2022-08-02T09:00:09;94171.38;;;20.43;66.06
50093;BME280;35974;47.752;10.290;2022-08-02T09:02:36;94158.63;;;20.45;67.14
50093;BME280;35974;47.752;10.290;2022-08-02T09:05:02;94181.03;;;20.60;67.94
50093;BME280;35974;47.752;10.290;2022-08-02T09:07:29;94188.03;;;20.76;65.99
50093;BME280;35974;47.752;10.290;2022-08-02T09:09:55;94201.19;;;21.03;66.30
50093;BME280;35974;47.752;10.290;2022-08-02T09:12:22;94163.16;;;21.03;65.10
50093;BME280;35974;47.752;10.290;2022-08-02T09:14:50;94194.59;;;21.27;64.53
50093;BME280;35974;47.752;10.290;2022-08-02T09:17:17;94192.50;;;21.34;65.07
50093;BME280;35974;47.752;10.290;2022-08-02T09:19:46;94176.53;;;21.29;63.07
50093;BME280;35974;47.752;10.290;2022-08-02T09:22:13;94197.38;;;21.63;62.33
50093;BME280;35974;47.752;10.290;2022-08-02T09:27:21;94186.72;;;21.68;61.90
50093;BME280;35974;47.752;10.290;2022-08-02T09:29:51;94153.09;;;21.31;61.72
50093;BME280;35974;47.752;10.290;2022-08-02T09:32:45;94162.22;;;21.71;61.00
50093;BME280;35974;47.752;10.290;2022-08-02T09:35:30;94170.72;;;21.83;58.49
50093;BME280;35974;47.752;10.290;2022-08-02T09:38:17;94173.41;;;21.78;56.08
50093;BME280;35974;47.752;10.290;2022-08-02T09:40:43;94173.66;;;22.02;57.65
50093;BME280;35974;47.752;10.290;2022-08-02T09:43:10;94164.31;;;22.00;57.74
50093;BME280;35974;47.752;10.290;2022-08-02T09:45:36;94167.53;;;22.12;57.52
50093;BME280;35974;47.752;10.290;2022-08-02T09:48:07;94183.50;;;22.43;56.53
50093;BME280;35974;47.752;10.290;2022-08-02T09:50:38;94182.63;;;22.63;57.29
50093;BME280;35974;47.752;10.290;2022-08-02T09:53:10;94179.41;;;22.71;57.61
50093;BME280;35974;47.752;10.290;2022-08-02T09:55:39;94153.56;;;22.61;55.09
50093;BME280;35974;47.752;10.290;2022-08-02T09:58:19;94182.31;;;22.85;54.73
50093;BME280;35974;47.752;10.290;2022-08-02T10:00:54;94149.66;;;23.03;52.96
50093;BME280;35974;47.752;10.290;2022-08-02T10:03:20;94182.22;;;23.11;54.29
50093;BME280;35974;47.752;10.290;2022-08-02T10:05:52;94178.13;;;23.29;52.96
50093;BME280;35974;47.752;10.290;2022-08-02T10:08:29;94179.03;;;23.53;53.22
50093;BME280;35974;47.752;10.290;2022-08-02T10:10:59;94180.75;;;23.73;52.43
50093;BME280;35974;47.752;10.290;2022-08-02T10:13:33;94152.88;;;23.90;52.36
50093;BME280;35974;47.752;10.290;2022-08-02T10:16:01;94176.19;;;24.13;50.36
50093;BME280;35974;47.752;10.290;2022-08-02T10:18:29;94146.84;;;24.08;49.72
50093;BME280;35974;47.752;10.290;2022-08-02T10:21:19;94176.66;;;24.21;51.78
50093;BME280;35974;47.752;10.290;2022-08-02T10:23:48;94167.25;;;24.53;50.94
50093;BME280;35974;47.752;10.290;2022-08-02T10:26:17;94149.63;;;24.27;48.97
50093;BME280;35974;47.752;10.290;2022-08-02T10:28:46;94153.38;;;24.51;49.56
50093;BME280;35974;47.752;10.290;2022-08-02T10:31:18;94149.94;;;24.45;48.87
50093;BME280;35974;47.752;10.290;2022-08-02T10:33:47;94141.19;;;24.39;48.70
50093;BME280;35974;47.752;10.290;2022-08-02T10:36:16;94133.56;;;24.52;49.11
50093;BME280;35974;47.752;10.290;2022-08-02T10:38:44;94136.66;;;24.64;49.28
50093;BME280;35974;47.752;10.290;2022-08-02T10:41:11;94136.53;;;24.74;47.58
50093;BME280;35974;47.752;10.290;2022-08-02T10:46:30;94152.91;;;24.43;50.75
50093;BME280;35974;47.752;10.290;2022-08-02T10:49:09;94148.03;;;24.99;50.05
50093;BME280;35974;47.752;10.290;2022-08-02T10:54:28;94133.81;;;24.79;47.21
50093;BME280;35974;47.752;10.290;2022-08-02T10:56:58;94138.47;;;24.93;48.00
50093;BME280;35974;47.752;10.290;2022-08-02T10:59:27;94136.25;;;25.19;47.61
50093;BME280;35974;47.752;10.290;2022-08-02T11:01:56;94138.81;;;24.86;46.85
50093;BME280;35974;47.752;10.290;2022-08-02T11:09:37;94126.91;;;25.16;50.85
50093;BME280;35974;47.752;10.290;2022-08-02T11:12:11;94107.22;;;25.07;47.82
50093;BME280;35974;47.752;10.290;2022-08-02T11:14:43;94130.53;;;25.26;48.51
50093;BME280;35974;47.752;10.290;2022-08-02T11:17:13;94122.44;;;25.31;46.83
50093;BME280;35974;47.752;10.290;2022-08-02T11:22:42;94134.09;;;25.40;46.66
50093;BME280;35974;47.752;10.290;2022-08-02T11:27:48;94112.84;;;25.25;46.61
50093;BME280;35974;47.752;10.290;2022-08-02T11:30:15;94123.81;;;25.47;45.78
50093;BME280;35974;47.752;10.290;2022-08-02T11:32:42;94110.06;;;25.35;49.86
50093;BME280;35974;47.752;10.290;2022-08-02T11:35:09;94124.16;;;25.60;48.00
50093;BME280;35974;47.752;10.290;2022-08-02T11:37:38;94125.78;;;25.61;47.28
50093;BME280;35974;47.752;10.290;2022-08-02T11:40:10;94119.97;;;25.15;47.39
50093;BME280;35974;47.752;10.290;2022-08-02T11:42:46;94108.31;;;25.06;47.83
50093;BME280;35974;47.752;10.290;2022-08-02T11:45:16;94119.09;;;25.39;46.45
50093;BME280;35974;47.752;10.290;2022-08-02T11:47:49;94095.38;;;25.51;46.39
50093;BME280;35974;47.752;10.290;2022-08-02T11:50:18;94101.13;;;25.58;46.34
50093;BME280;35974;47.752;10.290;2022-08-02T11:52:55;94107.38;;;25.87;46.23
50093;BME280;35974;47.752;10.290;2022-08-02T11:55:29;94108.31;;;25.96;46.38
50093;BME280;35974;47.752;10.290;2022-08-02T11:58:00;94098.66;;;25.95;46.02
50093;BME280;35974;47.752;10.290;2022-08-02T12:00:30;94096.34;;;25.55;44.69
50093;BME280;35974;47.752;10.290;2022-08-02T12:02:57;94113.72;;;25.77;45.42
50093;BME280;35974;47.752;10.290;2022-08-02T12:05:23;94120.81;;;25.68;47.12
50093;BME280;35974;47.752;10.290;2022-08-02T12:08:11;94089.66;;;25.72;47.89
50093;BME280;35974;47.752;10.290;2022-08-02T12:10:46;94113.72;;;25.77;45.93
50093;BME280;35974;47.752;10.290;2022-08-02T12:13:13;94103.81;;;25.91;46.23
50093;BME280;35974;47.752;10.290;2022-08-02T12:15:44;94119.81;;;25.26;46.68
50093;BME280;35974;47.752;10.290;2022-08-02T12:18:19;94094.72;;;25.40;47.02
50093;BME280;35974;47.752;10.290;2022-08-02T12:21:40;94119.28;;;25.94;46.77
50093;BME280;35974;47.752;10.290;2022-08-02T12:24:06;94094.56;;;25.51;47.85
50093;BME280;35974;47.752;10.290;2022-08-02T12:26:44;94088.56;;;25.73;45.36
50093;BME280;35974;47.752;10.290;2022-08-02T12:29:10;94106.94;;;25.99;46.66
50093;BME280;35974;47.752;10.290;2022-08-02T12:31:42;94079.25;;;26.17;45.13
50093;BME280;35974;47.752;10.290;2022-08-02T12:34:24;94101.13;;;26.24;44.49
50093;BME280;35974;47.752;10.290;2022-08-02T12:39:44;94106.97;;;26.26;45.89
50093;BME280;35974;47.752;10.290;2022-08-02T12:42:13;94092.78;;;26.67;43.90
50093;BME280;35974;47.752;10.290;2022-08-02T12:44:56;94030.59;;;26.38;45.80
50093;BME280;35974;47.752;10.290;2022-08-02T12:47:24;94102.34;;;26.88;45.42
50093;BME280;35974;47.752;10.290;2022-08-02T12:52:48;94089.91;;;26.78;43.36
50093;BME280;35974;47.752;10.290;2022-08-02T12:55:24;94077.22;;;26.70;44.92
50093;BME280;35974;47.752;10.290;2022-08-02T12:58:14;94065.25;;;26.76;42.96
50093;BME280;35974;47.752;10.290;2022-08-02T13:00:54;94084.22;;;26.93;44.16
50093;BME280;35974;47.752;10.290;2022-08-02T13:03:21;94081.34;;;27.26;45.74
50093;BME280;35974;47.752;10.290;2022-08-02T13:06:09;94071.06;;;27.06;44.27
50093;BME280;35974;47.752;10.290;2022-08-02T13:08:55;94078.59;;;27.31;43.24
50093;BME280;35974;47.752;10.290;2022-08-02T13:11:24;94047.63;;;26.97;41.92
50093;BME280;35974;47.752;10.290;2022-08-02T13:13:50;94061.16;;;26.92;42.84
50093;BME280;35974;47.752;10.290;2022-08-02T13:16:17;94071.91;;;26.92;44.00
50093;BME280;35974;47.752;10.290;2022-08-02T13:18:56;94059.75;;;26.95;42.93
50093;BME280;35974;47.752;10.290;2022-08-02T13:21:22;94032.28;;;26.98;42.06
50093;BME280;35974;47.752;10.290;2022-08-02T13:24:09;94050.34;;;27.20;42.23
50093;BME280;35974;47.752;10.290;2022-08-02T13:26:56;94053.50;;;27.22;42.09
50093;BME280;35974;47.752;10.290;2022-08-02T13:29:22;94028.81;;;27.34;43.83
50093;BME280;35974;47.752;10.290;2022-08-02T13:31:51;94053.16;;;27.60;41.30
50093;BME280;35974;47.752;10.290;2022-08-02T13:34:17;93984.28;;;27.19;42.14
50093;BME280;35974;47.752;10.290;2022-08-02T13:36:44;94033.72;;;27.86;41.59
50093;BME280;35974;47.752;10.290;2022-08-02T13:39:10;94051.91;;;28.11;41.36
50093;BME280;35974;47.752;10.290;2022-08-02T13:41:38;94038.53;;;27.44;42.69
50093;BME280;35974;47.752;10.290;2022-08-02T13:44:04;93982.16;;;27.52;41.61
50093;BME280;35974;47.752;10.290;2022-08-02T13:46:38;94028.50;;;27.58;41.70
50093;BME280;35974;47.752;10.290;2022-08-02T13:49:12;94034.59;;;27.95;39.94